sensor_id;sensor_type;location;lat;lon;timestamp;temperature;humidity
33699;DHT22;20032;52.436;13.312;2022-10-28T00:02:15;14.00;99.90
33699;DHT22;20032;52.436;13.312;2022-10-28T00:04:41;14.00;99.90
33699;DHT22;20032;52.436;13.312;2022-10-28T00:07:07;14.10;99.90
33699;DHT22;20032;52.436;13.312;2022-10-28T00:09:32;14.00;99.90
33699;DHT22;20032;52.436;13.312;2022-10-28T00:11:58;14.10;99.90
33699;DHT22;20032;52.436;13.312;2022-10-28T00:14:23;14.10;99.90
33699;DHT22;20032;52.436;13.312;2022-10-28T00:16:48;14.10;99.90
33699;DHT22;20032;52.436;13.312;2022-10-28T00:19:14;14.20;99.90
33699;DHT22;20032;52.436;13.312;2022-10-28T00:21:42;14.10;99.90
33699;DHT22;20032;52.436;13.312;2022-10-28T00:24:09;14.20;99.90
33699;DHT22;20032;52.436;13.312;2022-10-28T00:26:37;14.30;99.90
33699;DHT22;20032;52.436;13.312;2022-10-28T00:29:05;14.30;99.90
33699;DHT22;20032;52.436;13.312;2022-10-28T00:31:32;14.20;99.90
33699;DHT22;20032;52.436;13.312;2022-10-28T00:33:59;14.20;99.90
33699;DHT22;20032;52.436;13.312;2022-10-28T00:36:27;14.20;99.90
33699;DHT22;20032;52.436;13.312;2022-10-28T00:38:54;14.20;99.90
33699;DHT22;20032;52.436;13.312;2022-10-28T00:41:22;14.30;99.90
33699;DHT22;20032;52.436;13.312;2022-10-28T00:43:51;14.30;99.90
33699;DHT22;20032;52.436;13.312;2022-10-28T00:46:38;14.30;99.90
33699;DHT22;20032;52.436;13.312;2022-10-28T00:49:13;14.20;99.90
33699;DHT22;20032;52.436;13.312;2022-10-28T00:51:40;14.20;99.90
33699;DHT22;20032;52.436;13.312;2022-10-28T00:54:06;14.20;99.90
33699;DHT22;20032;52.436;13.312;2022-10-28T00:56:37;14.30;99.90
33699;DHT22;20032;52.436;13.312;2022-10-28T00:59:07;14.20;99.90
33699;DHT22;20032;52.436;13.312;2022-10-28T01:01:35;14.20;99.90
33699;DHT22;20032;52.436;13.312;2022-10-28T01:04:00;14.20;99.90
33699;DHT22;20032;52.436;13.312;2022-10-28T01:06:27;14.30;99.90
33699;DHT22;20032;52.436;13.312;2022-10-28T01:08:53;14.20;99.90
33699;DHT22;20032;52.436;13.312;2022-10-28T01:11:50;14.30;99.90
33699;DHT22;20032;52.436;13.312;2022-10-28T01:17:31;14.20;99.90
33699;DHT22;20032;52.436;13.312;2022-10-28T01:21:19;14.30;99.90
33699;DHT22;20032;52.436;13.312;2022-10-28T01:25:59;14.30;99.90
33699;DHT22;20032;52.436;13.312;2022-10-28T01:31:35;14.30;99.90
33699;DHT22;20032;52.436;13.312;2022-10-28T01:34:20;14.40;99.90
33699;DHT22;20032;52.436;13.312;2022-10-28T01:37:13;14.30;99.90
33699;DHT22;20032;52.436;13.312;2022-10-28T01:39:52;14.30;99.90
33699;DHT22;20032;52.436;13.312;2022-10-28T01:42:35;14.30;99.90
33699;DHT22;20032;52.436;13.312;2022-10-28T01:45:12;14.20;99.90
33699;DHT22;20032;52.436;13.312;2022-10-28T01:47:49;14.20;99.90
33699;DHT22;20032;52.436;13.312;2022-10-28T01:50:24;14.20;99.90
33699;DHT22;20032;52.436;13.312;2022-10-28T01:52:53;14.20;99.90
33699;DHT22;20032;52.436;13.312;2022-10-28T01:55:32;14.10;99.90
33699;DHT22;20032;52.436;13.312;2022-10-28T01:57:59;14.10;99.90
33699;DHT22;20032;52.436;13.312;2022-10-28T02:00:26;14.10;99.90
33699;DHT22;20032;52.436;13.312;2022-10-28T02:02:52;14.10;99.90
33699;DHT22;20032;52.436;13.312;2022-10-28T02:05:41;14.00;99.90
33699;DHT22;20032;52.436;13.312;2022-10-28T02:08:41;13.90;99.90
33699;DHT22;20032;52.436;13.312;2022-10-28T02:11:13;13.90;99.90
33699;DHT22;20032;52.436;13.312;2022-10-28T02:13:50;13.80;99.90
33699;DHT22;20032;52.436;13.312;2022-10-28T02:16:55;13.80;99.90
33699;DHT22;20032;52.436;13.312;2022-10-28T02:19:51;13.80;99.90
33699;DHT22;20032;52.436;13.312;2022-10-28T02:22:45;13.70;99.90
33699;DHT22;20032;52.436;13.312;2022-10-28T02:25:20;13.70;99.90
33699;DHT22;20032;52.436;13.312;2022-10-28T02:27:57;13.80;99.90
33699;DHT22;20032;52.436;13.312;2022-10-28T02:30:34;13.80;99.90
33699;DHT22;20032;52.436;13.312;2022-10-28T02:33:04;13.80;99.90
33699;DHT22;20032;52.436;13.312;2022-10-28T02:35:37;13.80;99.90
33699;DHT22;20032;52.436;13.312;2022-10-28T02:38:08;13.90;99.90
33699;DHT22;20032;52.436;13.312;2022-10-28T02:40:36;13.90;99.90
33699;DHT22;20032;52.436;13.312;2022-10-28T02:43:05;14.10;99.90
33699;DHT22;20032;52.436;13.312;2022-10-28T02:45:38;14.10;99.90
33699;DHT22;20032;52.436;13.312;2022-10-28T02:48:09;14.20;99.90
33699;DHT22;20032;52.436;13.312;2022-10-28T02:50:39;14.20;99.90
33699;DHT22;20032;52.436;13.312;2022-10-28T02:53:09;14.10;99.90
33699;DHT22;20032;52.436;13.312;2022-10-28T02:55:39;14.10;99.90
33699;DHT22;20032;52.436;13.312;2022-10-28T02:58:07;14.10;99.90
33699;DHT22;20032;52.436;13.312;2022-10-28T03:00:33;14.10;99.90
33699;DHT22;20032;52.436;13.312;2022-10-28T03:02:58;14.10;99.90
33699;DHT22;20032;52.436;13.312;2022-10-28T03:05:24;14.00;99.90
33699;DHT22;20032;52.436;13.312;2022-10-28T03:07:49;13.80;99.90
33699;DHT22;20032;52.436;13.312;2022-10-28T03:10:15;13.70;99.90
33699;DHT22;20032;52.436;13.312;2022-10-28T03:12:40;13.70;99.90
33699;DHT22;20032;52.436;13.312;2022-10-28T03:15:06;13.50;99.90
33699;DHT22;20032;52.436;13.312;2022-10-28T03:17:32;13.40;99.90
33699;DHT22;20032;52.436;13.312;2022-10-28T03:19:57;13.30;99.90
33699;DHT22;20032;52.436;13.312;2022-10-28T03:22:23;13.20;99.90
33699;DHT22;20032;52.436;13.312;2022-10-28T03:24:48;13.10;99.90
33699;DHT22;20032;52.436;13.312;2022-10-28T03:27:14;13.00;99.90
33699;DHT22;20032;52.436;13.312;2022-10-28T03:29:39;13.00;99.90
33699;DHT22;20032;52.436;13.312;2022-10-28T03:32:05;13.00;99.90
33699;DHT22;20032;52.436;13.312;2022-10-28T03:34:30;13.00;99.90
33699;DHT22;20032;52.436;13.312;2022-10-28T03:36:55;12.90;99.90
33699;DHT22;20032;52.436;13.312;2022-10-28T03:39:21;12.90;99.90
33699;DHT22;20032;52.436;13.312;2022-10-28T03:41:46;13.00;99.90
33699;DHT22;20032;52.436;13.312;2022-10-28T03:44:12;13.20;99.90
33699;DHT22;20032;52.436;13.312;2022-10-28T03:46:37;13.30;99.90
33699;DHT22;20032;52.436;13.312;2022-10-28T03:49:03;13.40;99.90
33699;DHT22;20032;52.436;13.312;2022-10-28T03:51:29;13.50;99.90
33699;DHT22;20032;52.436;13.312;2022-10-28T03:53:55;13.30;99.90
33699;DHT22;20032;52.436;13.312;2022-10-28T03:56:20;13.40;99.90
33699;DHT22;20032;52.436;13.312;2022-10-28T03:58:47;13.20;99.90
33699;DHT22;20032;52.436;13.312;2022-10-28T04:01:13;12.90;99.90
33699;DHT22;20032;52.436;13.312;2022-10-28T04:03:39;12.70;99.90
33699;DHT22;20032;52.436;13.312;2022-10-28T04:06:04;12.70;99.90
33699;DHT22;20032;52.436;13.312;2022-10-28T04:08:30;12.60;99.90
33699;DHT22;20032;52.436;13.312;2022-10-28T04:10:55;12.40;99.90
33699;DHT22;20032;52.436;13.312;2022-10-28T04:13:21;12.50;99.90
33699;DHT22;20032;52.436;13.312;2022-10-28T04:15:46;12.50;99.90
33699;DHT22;20032;52.436;13.312;2022-10-28T04:18:12;12.50;99.90
33699;DHT22;20032;52.436;13.312;2022-10-28T04:20:38;12.50;99.90
33699;DHT22;20032;52.436;13.312;2022-10-28T04:23:03;12.40;99.90
33699;DHT22;20032;52.436;13.312;2022-10-28T04:25:28;12.50;99.90
33699;DHT22;20032;52.436;13.312;2022-10-28T04:27:54;12.50;99.90
33699;DHT22;20032;52.436;13.312;2022-10-28T04:30:20;12.50;99.90
33699;DHT22;20032;52.436;13.312;2022-10-28T04:32:46;12.40;99.90
33699;DHT22;20032;52.436;13.312;2022-10-28T04:35:12;12.30;99.90
33699;DHT22;20032;52.436;13.312;2022-10-28T04:37:39;12.20;99.90
33699;DHT22;20032;52.436;13.312;2022-10-28T04:40:06;12.30;99.90
33699;DHT22;20032;52.436;13.312;2022-10-28T04:42:32;12.30;99.90
33699;DHT22;20032;52.436;13.312;2022-10-28T04:44:57;12.20;99.90
33699;DHT22;20032;52.436;13.312;2022-10-28T04:47:23;12.20;99.90
33699;DHT22;20032;52.436;13.312;2022-10-28T04:49:49;12.20;99.90
33699;DHT22;20032;52.436;13.312;2022-10-28T04:52:14;12.20;99.90
33699;DHT22;20032;52.436;13.312;2022-10-28T04:54:39;12.20;99.90
33699;DHT22;20032;52.436;13.312;2022-10-28T04:57:05;12.10;99.90
33699;DHT22;20032;52.436;13.312;2022-10-28T04:59:30;12.00;99.90
33699;DHT22;20032;52.436;13.312;2022-10-28T05:01:56;12.10;99.90
33699;DHT22;20032;52.436;13.312;2022-10-28T05:04:21;12.10;99.90
33699;DHT22;20032;52.436;13.312;2022-10-28T05:06:47;12.00;99.90
33699;DHT22;20032;52.436;13.312;2022-10-28T05:09:12;12.00;99.90
33699;DHT22;20032;52.436;13.312;2022-10-28T05:11:38;12.00;99.90
33699;DHT22;20032;52.436;13.312;2022-10-28T05:14:03;12.00;99.90
33699;DHT22;20032;52.436;13.312;2022-10-28T05:16:29;12.00;99.90
33699;DHT22;20032;52.436;13.312;2022-10-28T05:18:55;12.10;99.90
33699;DHT22;20032;52.436;13.312;2022-10-28T05:21:20;12.00;99.90
33699;DHT22;20032;52.436;13.312;2022-10-28T05:23:46;11.90;99.90
33699;DHT22;20032;52.436;13.312;2022-10-28T05:26:11;11.90;99.90
33699;DHT22;20032;52.436;13.312;2022-10-28T05:28:37;11.90;99.90
33699;DHT22;20032;52.436;13.312;2022-10-28T05:31:03;12.00;99.90
33699;DHT22;20032;52.436;13.312;2022-10-28T05:33:28;11.90;99.90
33699;DHT22;20032;52.436;13.312;2022-10-28T05:35:54;11.90;99.90
33699;DHT22;20032;52.436;13.312;2022-10-28T05:38:19;12.10;99.90
33699;DHT22;20032;52.436;13.312;2022-10-28T05:40:45;12.20;99.90
33699;DHT22;20032;52.436;13.312;2022-10-28T05:43:10;12.10;99.90
33699;DHT22;20032;52.436;13.312;2022-10-28T05:45:36;12.10;99.90
33699;DHT22;20032;52.436;13.312;2022-10-28T05:48:01;12.10;99.90
33699;DHT22;20032;52.436;13.312;2022-10-28T05:50:27;12.10;99.90
33699;DHT22;20032;52.436;13.312;2022-10-28T05:52:55;12.10;99.90
33699;DHT22;20032;52.436;13.312;2022-10-28T05:55:22;12.00;99.90
33699;DHT22;20032;52.436;13.312;2022-10-28T05:57:49;12.20;99.90
33699;DHT22;20032;52.436;13.312;2022-10-28T06:00:20;12.30;99.90
33699;DHT22;20032;52.436;13.312;2022-10-28T06:02:46;12.20;99.90
33699;DHT22;20032;52.436;13.312;2022-10-28T06:05:11;12.30;99.90
33699;DHT22;20032;52.436;13.312;2022-10-28T06:07:38;12.30;99.90
33699;DHT22;20032;52.436;13.312;2022-10-28T06:10:05;12.30;99.90
33699;DHT22;20032;52.436;13.312;2022-10-28T06:12:31;12.40;99.90
33699;DHT22;20032;52.436;13.312;2022-10-28T06:14:57;12.40;99.90
33699;DHT22;20032;52.436;13.312;2022-10-28T06:17:23;12.40;99.90
33699;DHT22;20032;52.436;13.312;2022-10-28T06:19:48;12.50;99.90
33699;DHT22;20032;52.436;13.312;2022-10-28T06:22:14;12.70;99.90
33699;DHT22;20032;52.436;13.312;2022-10-28T06:24:39;12.90;99.90
33699;DHT22;20032;52.436;13.312;2022-10-28T06:27:05;13.10;99.90
33699;DHT22;20032;52.436;13.312;2022-10-28T06:29:31;13.20;99.90
33699;DHT22;20032;52.436;13.312;2022-10-28T06:31:57;13.20;99.90
33699;DHT22;20032;52.436;13.312;2022-10-28T06:34:22;13.30;99.90
33699;DHT22;20032;52.436;13.312;2022-10-28T06:36:48;13.30;99.90
33699;DHT22;20032;52.436;13.312;2022-10-28T06:39:13;13.40;99.90
33699;DHT22;20032;52.436;13.312;2022-10-28T06:41:39;13.50;99.90
33699;DHT22;20032;52.436;13.312;2022-10-28T06:44:04;13.50;99.90
33699;DHT22;20032;52.436;13.312;2022-10-28T06:46:30;13.50;99.90
33699;DHT22;20032;52.436;13.312;2022-10-28T06:48:55;13.50;99.90
33699;DHT22;20032;52.436;13.312;2022-10-28T06:51:22;13.50;99.90
33699;DHT22;20032;52.436;13.312;2022-10-28T06:53:48;13.60;99.90
33699;DHT22;20032;52.436;13.312;2022-10-28T06:56:14;13.70;99.90
33699;DHT22;20032;52.436;13.312;2022-10-28T06:58:40;13.80;99.90
33699;DHT22;20032;52.436;13.312;2022-10-28T07:01:05;13.80;99.90
33699;DHT22;20032;52.436;13.312;2022-10-28T07:03:31;13.80;99.90
33699;DHT22;20032;52.436;13.312;2022-10-28T07:05:57;13.80;99.90
33699;DHT22;20032;52.436;13.312;2022-10-28T07:08:23;13.80;99.90
33699;DHT22;20032;52.436;13.312;2022-10-28T07:10:53;13.90;99.90
33699;DHT22;20032;52.436;13.312;2022-10-28T07:13:19;13.90;99.90
33699;DHT22;20032;52.436;13.312;2022-10-28T07:15:50;14.00;99.90
33699;DHT22;20032;52.436;13.312;2022-10-28T07:18:15;14.00;99.90
33699;DHT22;20032;52.436;13.312;2022-10-28T07:20:41;14.00;99.90
33699;DHT22;20032;52.436;13.312;2022-10-28T07:23:07;14.10;99.90
33699;DHT22;20032;52.436;13.312;2022-10-28T07:25:33;14.10;99.90
33699;DHT22;20032;52.436;13.312;2022-10-28T07:27:59;14.20;99.90
33699;DHT22;20032;52.436;13.312;2022-10-28T07:30:26;14.30;99.90
33699;DHT22;20032;52.436;13.312;2022-10-28T07:32:52;14.40;99.90
33699;DHT22;20032;52.436;13.312;2022-10-28T07:35:17;14.50;99.90
33699;DHT22;20032;52.436;13.312;2022-10-28T07:37:43;14.50;99.90
33699;DHT22;20032;52.436;13.312;2022-10-28T07:40:08;14.60;99.90
33699;DHT22;20032;52.436;13.312;2022-10-28T07:42:34;14.70;99.90
33699;DHT22;20032;52.436;13.312;2022-10-28T07:45:00;14.80;99.90
33699;DHT22;20032;52.436;13.312;2022-10-28T07:47:25;14.80;99.90
33699;DHT22;20032;52.436;13.312;2022-10-28T07:49:51;14.90;99.90
33699;DHT22;20032;52.436;13.312;2022-10-28T07:52:16;14.90;99.90
33699;DHT22;20032;52.436;13.312;2022-10-28T07:54:42;15.00;99.90
33699;DHT22;20032;52.436;13.312;2022-10-28T07:57:08;15.10;99.90
33699;DHT22;20032;52.436;13.312;2022-10-28T07:59:34;15.10;99.90
33699;DHT22;20032;52.436;13.312;2022-10-28T08:01:59;15.20;99.90
33699;DHT22;20032;52.436;13.312;2022-10-28T08:04:27;15.20;99.90
33699;DHT22;20032;52.436;13.312;2022-10-28T08:06:53;15.20;99.90
33699;DHT22;20032;52.436;13.312;2022-10-28T08:09:18;15.30;99.90
33699;DHT22;20032;52.436;13.312;2022-10-28T08:11:43;15.30;99.90
33699;DHT22;20032;52.436;13.312;2022-10-28T08:14:09;15.30;99.90
33699;DHT22;20032;52.436;13.312;2022-10-28T08:16:34;15.40;99.90
33699;DHT22;20032;52.436;13.312;2022-10-28T08:19:00;15.40;99.90
33699;DHT22;20032;52.436;13.312;2022-10-28T08:21:25;15.50;99.90
33699;DHT22;20032;52.436;13.312;2022-10-28T08:23:52;15.50;99.90
33699;DHT22;20032;52.436;13.312;2022-10-28T08:26:19;15.50;99.90
33699;DHT22;20032;52.436;13.312;2022-10-28T08:28:44;15.50;99.90
33699;DHT22;20032;52.436;13.312;2022-10-28T08:31:10;15.70;99.90
33699;DHT22;20032;52.436;13.312;2022-10-28T08:33:38;15.80;99.90
33699;DHT22;20032;52.436;13.312;2022-10-28T08:36:05;16.00;99.90
33699;DHT22;20032;52.436;13.312;2022-10-28T08:38:31;16.20;99.90
33699;DHT22;20032;52.436;13.312;2022-10-28T08:41:11;16.40;99.90
33699;DHT22;20032;52.436;13.312;2022-10-28T08:44:54;16.50;99.90
33699;DHT22;20032;52.436;13.312;2022-10-28T08:47:01;16.50;99.90
33699;DHT22;20032;52.436;13.312;2022-10-28T08:49:31;16.60;99.90
33699;DHT22;20032;52.436;13.312;2022-10-28T08:52:02;16.60;99.90
33699;DHT22;20032;52.436;13.312;2022-10-28T08:54:34;16.70;99.90
33699;DHT22;20032;52.436;13.312;2022-10-28T08:57:03;16.70;99.90
33699;DHT22;20032;52.436;13.312;2022-10-28T08:59:34;16.80;99.90
33699;DHT22;20032;52.436;13.312;2022-10-28T09:02:03;17.00;99.90
33699;DHT22;20032;52.436;13.312;2022-10-28T09:04:41;17.10;99.90
33699;DHT22;20032;52.436;13.312;2022-10-28T09:07:15;17.30;99.90
33699;DHT22;20032;52.436;13.312;2022-10-28T09:09:41;17.60;99.90
33699;DHT22;20032;52.436;13.312;2022-10-28T09:17:54;18.10;99.90
33699;DHT22;20032;52.436;13.312;2022-10-28T09:20:43;18.30;99.90
33699;DHT22;20032;52.436;13.312;2022-10-28T09:23:28;18.50;99.90
33699;DHT22;20032;52.436;13.312;2022-10-28T09:28:50;18.80;99.90
33699;DHT22;20032;52.436;13.312;2022-10-28T09:31:38;19.00;99.90
33699;DHT22;20032;52.436;13.312;2022-10-28T09:36:45;19.30;99.90
33699;DHT22;20032;52.436;13.312;2022-10-28T09:39:17;19.40;99.90
33699;DHT22;20032;52.436;13.312;2022-10-28T09:41:44;19.60;99.90
33699;DHT22;20032;52.436;13.312;2022-10-28T09:44:20;19.80;99.90
33699;DHT22;20032;52.436;13.312;2022-10-28T09:46:49;20.00;99.90
33699;DHT22;20032;52.436;13.312;2022-10-28T09:49:19;20.00;99.90
33699;DHT22;20032;52.436;13.312;2022-10-28T09:54:22;20.10;99.90
33699;DHT22;20032;52.436;13.312;2022-10-28T09:56:50;20.20;99.90
33699;DHT22;20032;52.436;13.312;2022-10-28T09:59:16;20.30;99.90
33699;DHT22;20032;52.436;13.312;2022-10-28T10:01:42;20.50;99.90
33699;DHT22;20032;52.436;13.312;2022-10-28T10:04:19;20.40;99.90
33699;DHT22;20032;52.436;13.312;2022-10-28T10:06:48;20.20;99.90
33699;DHT22;20032;52.436;13.312;2022-10-28T10:09:20;20.10;99.90
33699;DHT22;20032;52.436;13.312;2022-10-28T10:11:47;20.10;99.90
33699;DHT22;20032;52.436;13.312;2022-10-28T10:14:17;20.30;99.90
33699;DHT22;20032;52.436;13.312;2022-10-28T10:16:48;20.40;99.90
33699;DHT22;20032;52.436;13.312;2022-10-28T10:19:14;20.50;99.90
33699;DHT22;20032;52.436;13.312;2022-10-28T10:21:54;20.60;99.90
33699;DHT22;20032;52.436;13.312;2022-10-28T10:24:35;20.70;99.90
33699;DHT22;20032;52.436;13.312;2022-10-28T10:27:13;20.70;99.90
33699;DHT22;20032;52.436;13.312;2022-10-28T10:29:44;20.60;99.90
33699;DHT22;20032;52.436;13.312;2022-10-28T10:32:25;20.60;99.90
33699;DHT22;20032;52.436;13.312;2022-10-28T10:37:42;20.90;99.90
33699;DHT22;20032;52.436;13.312;2022-10-28T10:40:21;21.00;99.90
33699;DHT22;20032;52.436;13.312;2022-10-28T10:42:47;21.00;99.90
33699;DHT22;20032;52.436;13.312;2022-10-28T10:45:28;21.10;99.90
33699;DHT22;20032;52.436;13.312;2022-10-28T10:48:25;21.20;99.90
33699;DHT22;20032;52.436;13.312;2022-10-28T10:50:41;21.10;99.90
33699;DHT22;20032;52.436;13.312;2022-10-28T10:53:17;21.20;99.90
33699;DHT22;20032;52.436;13.312;2022-10-28T10:55:49;21.30;99.90
33699;DHT22;20032;52.436;13.312;2022-10-28T10:58:18;21.40;99.90
33699;DHT22;20032;52.436;13.312;2022-10-28T11:00:48;21.40;99.90
33699;DHT22;20032;52.436;13.312;2022-10-28T11:03:20;21.40;99.90
33699;DHT22;20032;52.436;13.312;2022-10-28T11:05:56;21.60;99.90
33699;DHT22;20032;52.436;13.312;2022-10-28T11:08:39;21.70;99.90
33699;DHT22;20032;52.436;13.312;2022-10-28T11:11:12;22.00;99.90
33699;DHT22;20032;52.436;13.312;2022-10-28T11:13:39;22.20;99.90
33699;DHT22;20032;52.436;13.312;2022-10-28T11:16:16;22.50;99.90
33699;DHT22;20032;52.436;13.312;2022-10-28T11:18:45;22.90;99.90
33699;DHT22;20032;52.436;13.312;2022-10-28T11:23:57;23.30;99.90
33699;DHT22;20032;52.436;13.312;2022-10-28T11:26:26;23.60;99.90
33699;DHT22;20032;52.436;13.312;2022-10-28T11:29:15;23.90;99.90
33699;DHT22;20032;52.436;13.312;2022-10-28T11:31:55;24.10;99.90
33699;DHT22;20032;52.436;13.312;2022-10-28T11:37:33;24.60;99.90
33699;DHT22;20032;52.436;13.312;2022-10-28T11:42:26;25.00;99.90
33699;DHT22;20032;52.436;13.312;2022-10-28T11:47:51;25.00;99.90
33699;DHT22;20032;52.436;13.312;2022-10-28T11:53:41;25.30;99.90
33699;DHT22;20032;52.436;13.312;2022-10-28T11:58:50;25.20;99.90
33699;DHT22;20032;52.436;13.312;2022-10-28T12:01:49;25.20;99.90
33699;DHT22;20032;52.436;13.312;2022-10-28T12:04:39;24.90;99.90
33699;DHT22;20032;52.436;13.312;2022-10-28T12:11:12;23.90;99.90
33699;DHT22;20032;52.436;13.312;2022-10-28T12:22:30;25.50;99.90
33699;DHT22;20032;52.436;13.312;2022-10-28T12:23:56;25.80;99.90
33699;DHT22;20032;52.436;13.312;2022-10-28T12:29:02;25.40;99.90
33699;DHT22;20032;52.436;13.312;2022-10-28T12:31:31;25.10;99.90
33699;DHT22;20032;52.436;13.312;2022-10-28T12:34:03;25.40;99.90
33699;DHT22;20032;52.436;13.312;2022-10-28T12:36:48;25.70;99.90
33699;DHT22;20032;52.436;13.312;2022-10-28T12:39:33;25.70;99.90
33699;DHT22;20032;52.436;13.312;2022-10-28T12:42:12;26.00;99.90
33699;DHT22;20032;52.436;13.312;2022-10-28T12:44:40;26.40;99.90
33699;DHT22;20032;52.436;13.312;2022-10-28T12:47:28;26.20;99.90
33699;DHT22;20032;52.436;13.312;2022-10-28T12:55:44;25.40;99.90
33699;DHT22;20032;52.436;13.312;2022-10-28T12:58:23;25.10;99.90
33699;DHT22;20032;52.436;13.312;2022-10-28T13:00:57;24.80;99.90
33699;DHT22;20032;52.436;13.312;2022-10-28T13:03:24;24.60;99.90
33699;DHT22;20032;52.436;13.312;2022-10-28T13:19:58;24.00;99.90
33699;DHT22;20032;52.436;13.312;2022-10-28T13:22:31;24.00;99.90
33699;DHT22;20032;52.436;13.312;2022-10-28T13:25:16;24.00;99.90
33699;DHT22;20032;52.436;13.312;2022-10-28T13:27:44;23.90;99.90
33699;DHT22;20032;52.436;13.312;2022-10-28T13:30:16;23.80;99.90
33699;DHT22;20032;52.436;13.312;2022-10-28T13:32:43;23.70;99.90
33699;DHT22;20032;52.436;13.312;2022-10-28T13:35:11;23.70;99.90
33699;DHT22;20032;52.436;13.312;2022-10-28T13:37:39;23.60;99.90
33699;DHT22;20032;52.436;13.312;2022-10-28T13:40:06;23.50;99.90
33699;DHT22;20032;52.436;13.312;2022-10-28T13:42:44;23.40;99.90
33699;DHT22;20032;52.436;13.312;2022-10-28T13:45:48;23.40;99.90
33699;DHT22;20032;52.436;13.312;2022-10-28T13:48:42;23.40;99.90
33699;DHT22;20032;52.436;13.312;2022-10-28T13:59:00;23.20;99.90
33699;DHT22;20032;52.436;13.312;2022-10-28T14:01:54;23.20;99.90
33699;DHT22;20032;52.436;13.312;2022-10-28T14:06:49;23.10;99.90
33699;DHT22;20032;52.436;13.312;2022-10-28T14:09:27;23.00;99.90
33699;DHT22;20032;52.436;13.312;2022-10-28T14:12:20;23.00;99.90
33699;DHT22;20032;52.436;13.312;2022-10-28T14:17:22;23.00;99.90
33699;DHT22;20032;52.436;13.312;2022-10-28T14:19:50;23.00;99.90
33699;DHT22;20032;52.436;13.312;2022-10-28T14:22:30;23.00;99.90
33699;DHT22;20032;52.436;13.312;2022-10-28T14:24:56;23.00;99.90
33699;DHT22;20032;52.436;13.312;2022-10-28T14:27:38;22.90;99.90
33699;DHT22;20032;52.436;13.312;2022-10-28T14:30:21;22.90;99.90
33699;DHT22;20032;52.436;13.312;2022-10-28T14:35:20;22.80;99.90
33699;DHT22;20032;52.436;13.312;2022-10-28T14:38:22;22.90;99.90
33699;DHT22;20032;52.436;13.312;2022-10-28T14:43:49;22.90;99.90
33699;DHT22;20032;52.436;13.312;2022-10-28T14:47:45;22.80;99.90
33699;DHT22;20032;52.436;13.312;2022-10-28T14:49:26;22.70;99.90
33699;DHT22;20032;52.436;13.312;2022-10-28T14:51:53;22.60;99.90
33699;DHT22;20032;52.436;13.312;2022-10-28T14:54:37;22.50;99.90
33699;DHT22;20032;52.436;13.312;2022-10-28T14:57:06;22.40;99.90
33699;DHT22;20032;52.436;13.312;2022-10-28T14:59:36;22.40;99.90
33699;DHT22;20032;52.436;13.312;2022-10-28T15:02:22;22.30;99.90
33699;DHT22;20032;52.436;13.312;2022-10-28T15:05:02;22.30;99.90
33699;DHT22;20032;52.436;13.312;2022-10-28T15:07:28;22.20;99.90
33699;DHT22;20032;52.436;13.312;2022-10-28T15:09:54;22.10;99.90
33699;DHT22;20032;52.436;13.312;2022-10-28T15:12:21;21.90;99.90
33699;DHT22;20032;52.436;13.312;2022-10-28T15:14:50;21.80;99.90
33699;DHT22;20032;52.436;13.312;2022-10-28T15:17:18;21.70;99.90
33699;DHT22;20032;52.436;13.312;2022-10-28T15:19:46;21.70;99.90
33699;DHT22;20032;52.436;13.312;2022-10-28T15:27:31;21.50;99.90
33699;DHT22;20032;52.436;13.312;2022-10-28T15:29:57;21.40;99.90
33699;DHT22;20032;52.436;13.312;2022-10-28T15:32:27;21.40;99.90
33699;DHT22;20032;52.436;13.312;2022-10-28T15:34:54;21.30;99.90
33699;DHT22;20032;52.436;13.312;2022-10-28T15:37:22;21.20;99.90
33699;DHT22;20032;52.436;13.312;2022-10-28T15:39:49;21.20;99.90
33699;DHT22;20032;52.436;13.312;2022-10-28T15:42:29;21.10;99.90
33699;DHT22;20032;52.436;13.312;2022-10-28T15:44:56;21.00;99.90
33699;DHT22;20032;52.436;13.312;2022-10-28T15:47:28;21.00;99.90
33699;DHT22;20032;52.436;13.312;2022-10-28T15:50:00;20.90;99.90
33699;DHT22;20032;52.436;13.312;2022-10-28T15:52:31;20.90;99.90
33699;DHT22;20032;52.436;13.312;2022-10-28T15:54:59;20.70;99.90
33699;DHT22;20032;52.436;13.312;2022-10-28T15:57:29;20.60;99.90
33699;DHT22;20032;52.436;13.312;2022-10-28T16:00:18;20.40;99.90
33699;DHT22;20032;52.436;13.312;2022-10-28T16:02:50;20.40;99.90
33699;DHT22;20032;52.436;13.312;2022-10-28T16:08:04;20.10;99.90
33699;DHT22;20032;52.436;13.312;2022-10-28T16:10:41;20.00;99.90
33699;DHT22;20032;52.436;13.312;2022-10-28T16:13:16;20.10;99.90
33699;DHT22;20032;52.436;13.312;2022-10-28T16:15:53;20.10;99.90
33699;DHT22;20032;52.436;13.312;2022-10-28T16:18:21;20.10;99.90
33699;DHT22;20032;52.436;13.312;2022-10-28T16:20:47;20.10;99.90
33699;DHT22;20032;52.436;13.312;2022-10-28T16:23:15;20.20;99.90
33699;DHT22;20032;52.436;13.312;2022-10-28T16:25:41;20.20;99.90
33699;DHT22;20032;52.436;13.312;2022-10-28T16:28:16;20.20;99.90
33699;DHT22;20032;52.436;13.312;2022-10-28T16:30:42;20.10;99.90
33699;DHT22;20032;52.436;13.312;2022-10-28T16:33:08;20.10;99.90
33699;DHT22;20032;52.436;13.312;2022-10-28T16:35:34;20.00;99.90
33699;DHT22;20032;52.436;13.312;2022-10-28T16:38:00;20.00;99.90
33699;DHT22;20032;52.436;13.312;2022-10-28T16:40:25;19.90;99.90
33699;DHT22;20032;52.436;13.312;2022-10-28T16:42:51;19.90;99.90
33699;DHT22;20032;52.436;13.312;2022-10-28T16:45:17;19.90;99.90
33699;DHT22;20032;52.436;13.312;2022-10-28T16:47:43;19.90;99.90
33699;DHT22;20032;52.436;13.312;2022-10-28T16:50:10;19.70;99.90
33699;DHT22;20032;52.436;13.312;2022-10-28T16:52:35;19.70;99.90
33699;DHT22;20032;52.436;13.312;2022-10-28T16:55:01;19.60;99.90
33699;DHT22;20032;52.436;13.312;2022-10-28T16:57:27;19.60;99.90
33699;DHT22;20032;52.436;13.312;2022-10-28T16:59:53;19.60;99.90
33699;DHT22;20032;52.436;13.312;2022-10-28T17:02:34;19.60;99.90
33699;DHT22;20032;52.436;13.312;2022-10-28T17:05:00;19.50;99.90
33699;DHT22;20032;52.436;13.312;2022-10-28T17:07:29;19.40;99.90
33699;DHT22;20032;52.436;13.312;2022-10-28T17:09:54;19.20;99.90
33699;DHT22;20032;52.436;13.312;2022-10-28T17:12:23;19.00;99.90
33699;DHT22;20032;52.436;13.312;2022-10-28T17:14:49;18.80;99.90
33699;DHT22;20032;52.436;13.312;2022-10-28T17:17:14;18.80;99.90
33699;DHT22;20032;52.436;13.312;2022-10-28T17:19:40;18.80;99.90